createdAt,value
2023-02-15T00:00:19.789Z,5.5
2023-02-15T00:01:22.856Z,5.5
2023-02-15T00:02:26.181Z,5.5
2023-02-15T00:03:29.066Z,5.5
2023-02-15T00:04:32.398Z,5.5
2023-02-15T00:05:35.193Z,5.4
2023-02-15T00:06:40.373Z,5.5
2023-02-15T00:07:42.829Z,5.4
2023-02-15T00:08:45.685Z,5.5
2023-02-15T00:09:49.731Z,5.5
2023-02-15T00:10:52.893Z,5.4
2023-02-15T00:11:57.113Z,5.4
2023-02-15T00:12:59.354Z,5.5
2023-02-15T00:14:02.090Z,5.5
2023-02-15T00:15:04.878Z,5.4
2023-02-15T00:16:08.504Z,5.4
2023-02-15T00:17:11.544Z,5.4
2023-02-15T00:18:14.947Z,5.4
2023-02-15T00:19:17.398Z,5.4
2023-02-15T00:20:20.880Z,5.4
2023-02-15T00:21:24.604Z,5.4
2023-02-15T00:22:27.769Z,5.4
2023-02-15T00:23:30.854Z,5.4
2023-02-15T00:24:34.371Z,5.3
2023-02-15T00:25:37.203Z,5.3
2023-02-15T00:26:40.945Z,5.3
2023-02-15T00:27:45.109Z,5.3
2023-02-15T00:28:48.818Z,5.3
2023-02-15T00:29:52.014Z,5.3
2023-02-15T00:30:55.862Z,5.3
2023-02-15T00:32:00.149Z,5.3
2023-02-15T00:33:03.616Z,5.3
2023-02-15T00:34:06.606Z,5.3
2023-02-15T00:35:10.677Z,5.3
2023-02-15T00:36:15.063Z,5.2
2023-02-15T00:37:19.063Z,5.2
2023-02-15T00:38:21.612Z,5.2
2023-02-15T00:39:25.069Z,5.2
2023-02-15T00:40:27.622Z,5.2
2023-02-15T00:41:30.699Z,5.2
2023-02-15T00:42:34.412Z,5.2
2023-02-15T00:43:38.691Z,5.2
2023-02-15T00:44:41.796Z,5.2
2023-02-15T00:45:45.266Z,5.2
2023-02-15T00:46:48.490Z,5.2
2023-02-15T00:47:51.556Z,5.2
2023-02-15T00:48:54.677Z,5.2
2023-02-15T00:49:57.679Z,5.2
2023-02-15T00:51:01.075Z,5.2
2023-02-15T00:52:05.090Z,5.2
2023-02-15T00:53:07.814Z,5.2
2023-02-15T00:54:11.538Z,5.2
2023-02-15T00:55:15.322Z,5.2
2023-02-15T00:56:18.646Z,5.2
2023-02-15T00:57:21.742Z,5.2
2023-02-15T00:58:24.944Z,5.2
2023-02-15T00:59:29.067Z,5.2
2023-02-15T01:00:32.160Z,5.1
2023-02-15T01:01:35.466Z,5.2
2023-02-15T01:02:39.447Z,5.2
2023-02-15T01:03:43.193Z,5.2
2023-02-15T01:04:47.018Z,5.2
2023-02-15T01:05:50.459Z,5.2
2023-02-15T01:06:54.148Z,5.2
2023-02-15T01:07:56.939Z,5.2
2023-02-15T01:09:00.434Z,5.2
2023-02-15T01:10:03.775Z,5.2
2023-02-15T01:11:07.143Z,5.2
2023-02-15T01:12:10.623Z,5.2
2023-02-15T01:13:13.779Z,5.2
2023-02-15T01:14:16.862Z,5.2
2023-02-15T01:15:21.030Z,5.2
2023-02-15T01:16:24.915Z,5.2
2023-02-15T01:17:28.337Z,5.2
2023-02-15T01:18:31.309Z,5.1
2023-02-15T01:19:33.859Z,5.1
2023-02-15T01:20:37.271Z,5.1
2023-02-15T01:21:40.429Z,5.1
2023-02-15T01:22:42.945Z,5.1
2023-02-15T01:23:45.992Z,5.1
2023-02-15T01:24:49.701Z,5.1
2023-02-15T01:25:52.756Z,5.1
2023-02-15T01:26:56.219Z,5.1
2023-02-15T01:27:59.605Z,5.1
2023-02-15T01:29:02.436Z,5.1
2023-02-15T01:30:05.737Z,5
2023-02-15T01:31:10.444Z,5
2023-02-15T01:32:14.556Z,5
2023-02-15T01:33:17.271Z,5
2023-02-15T01:34:21.032Z,5
2023-02-15T01:35:24.146Z,5
2023-02-15T01:36:27.559Z,5
2023-02-15T01:37:30.825Z,5
2023-02-15T01:38:33.350Z,4.9
2023-02-15T01:39:36.649Z,5
2023-02-15T01:40:39.988Z,4.9
2023-02-15T01:41:43.994Z,4.9
2023-02-15T01:42:47.381Z,5
2023-02-15T01:43:50.370Z,4.9
2023-02-15T01:44:53.709Z,4.9
2023-02-15T01:45:57.269Z,5
2023-02-15T01:47:01.760Z,5
2023-02-15T01:48:04.431Z,4.9
2023-02-15T01:49:07.693Z,4.9
2023-02-15T01:50:11.407Z,4.9
2023-02-15T01:51:14.848Z,4.9
2023-02-15T01:52:17.915Z,4.9
2023-02-15T01:53:21.335Z,4.9
2023-02-15T01:54:24.758Z,4.8
2023-02-15T01:55:28.608Z,4.9
2023-02-15T01:56:31.049Z,4.8
2023-02-15T01:57:34.427Z,4.8
2023-02-15T01:58:37.838Z,4.8
2023-02-15T01:59:40.673Z,4.8
2023-02-15T02:00:44.139Z,4.8
2023-02-15T02:01:47.338Z,4.8
2023-02-15T02:02:52.044Z,4.8
2023-02-15T02:03:55.235Z,4.8
2023-02-15T02:04:58.383Z,4.8
2023-02-15T02:06:03.464Z,4.8
2023-02-15T02:07:06.339Z,4.8
2023-02-15T02:08:09.627Z,4.8
2023-02-15T02:09:13.144Z,4.8
2023-02-15T02:10:16.442Z,4.8
2023-02-15T02:11:19.868Z,4.8
2023-02-15T02:12:23.221Z,4.8
2023-02-15T02:13:26.565Z,4.8
2023-02-15T02:14:29.956Z,4.8
2023-02-15T02:15:33.055Z,4.8
2023-02-15T02:16:36.417Z,4.8
2023-02-15T02:17:39.539Z,4.8
2023-02-15T02:18:43.642Z,4.8
2023-02-15T02:19:46.571Z,4.8
2023-02-15T02:20:49.783Z,4.8
2023-02-15T02:21:53.208Z,4.8
2023-02-15T02:22:56.183Z,4.8
2023-02-15T02:23:59.553Z,4.7
2023-02-15T02:25:02.558Z,4.7
2023-02-15T02:26:05.664Z,4.7
2023-02-15T02:27:09.480Z,4.7
2023-02-15T02:28:12.349Z,4.7
2023-02-15T02:29:15.610Z,4.7
2023-02-15T02:30:18.952Z,4.7
2023-02-15T02:31:22.312Z,4.7
2023-02-15T02:32:25.988Z,4.7
2023-02-15T02:33:28.993Z,4.6
2023-02-15T02:34:33.140Z,4.6
2023-02-15T02:35:35.861Z,4.7
2023-02-15T02:36:39.239Z,4.6
2023-02-15T02:37:42.516Z,4.6
2023-02-15T02:38:45.387Z,4.6
2023-02-15T02:39:48.610Z,4.6
2023-02-15T02:40:51.983Z,4.6
2023-02-15T02:41:55.216Z,4.7
2023-02-15T02:42:58.475Z,4.6
2023-02-15T02:44:01.531Z,4.7
2023-02-15T02:45:05.142Z,4.7
2023-02-15T02:46:08.373Z,4.7
2023-02-15T02:47:11.624Z,4.7
2023-02-15T02:48:14.747Z,4.6
2023-02-15T02:49:18.180Z,4.7
2023-02-15T02:50:22.300Z,4.6
2023-02-15T02:51:25.694Z,4.6
2023-02-15T02:52:28.512Z,4.6
2023-02-15T02:53:31.593Z,4.6
2023-02-15T02:54:35.075Z,4.6
2023-02-15T02:55:38.064Z,4.6
2023-02-15T02:56:41.150Z,4.6
2023-02-15T02:57:43.881Z,4.6
2023-02-15T02:58:47.050Z,4.5
2023-02-15T02:59:49.843Z,4.5
2023-02-15T03:00:52.397Z,4.5
2023-02-15T03:01:55.512Z,4.5
2023-02-15T03:02:58.412Z,4.5
2023-02-15T03:04:02.000Z,4.5
2023-02-15T03:05:05.086Z,4.5
2023-02-15T03:06:09.251Z,4.5
2023-02-15T03:07:12.705Z,4.5
2023-02-15T03:08:15.678Z,4.5
2023-02-15T03:09:18.490Z,4.5
2023-02-15T03:10:21.850Z,4.5
2023-02-15T03:11:25.571Z,4.5
2023-02-15T03:12:29.033Z,4.5
2023-02-15T03:13:32.006Z,4.5
2023-02-15T03:14:35.078Z,4.5
2023-02-15T03:15:38.216Z,4.5
2023-02-15T03:16:40.921Z,4.5
2023-02-15T03:17:44.101Z,4.5
2023-02-15T03:18:46.796Z,4.5
2023-02-15T03:19:49.780Z,4.5
2023-02-15T03:20:53.172Z,4.5
2023-02-15T03:21:57.272Z,4.5
2023-02-15T03:23:00.193Z,4.5
2023-02-15T03:24:03.282Z,4.5
2023-02-15T03:25:06.584Z,4.5
2023-02-15T03:26:09.947Z,4.5
2023-02-15T03:27:12.641Z,4.5
2023-02-15T03:28:15.335Z,4.5
2023-02-15T03:29:18.474Z,4.5
2023-02-15T03:30:22.681Z,4.5
2023-02-15T03:31:26.096Z,4.5
2023-02-15T03:32:29.605Z,4.4
2023-02-15T03:33:32.310Z,4.4
2023-02-15T03:34:35.744Z,4.4
2023-02-15T03:35:39.485Z,4.4
2023-02-15T03:36:43.413Z,4.4
2023-02-15T03:37:47.515Z,4.4
2023-02-15T03:38:50.517Z,4.4
2023-02-15T03:39:53.489Z,4.4
2023-02-15T03:40:57.092Z,4.4
2023-02-15T03:42:00.428Z,4.4
2023-02-15T03:43:03.419Z,4.4
2023-02-15T03:44:06.485Z,4.4
2023-02-15T03:45:09.860Z,4.4
2023-02-15T03:46:13.666Z,4.4
2023-02-15T03:47:16.641Z,4.4
2023-02-15T03:48:19.894Z,4.4
2023-02-15T03:49:22.899Z,4.4
2023-02-15T03:50:26.352Z,4.4
2023-02-15T03:51:29.159Z,4.4
2023-02-15T03:52:32.013Z,4.4
2023-02-15T03:53:36.111Z,4.4
2023-02-15T03:54:39.232Z,4.4
2023-02-15T03:55:42.351Z,4.4
2023-02-15T03:56:45.495Z,4.4
2023-02-15T03:57:48.576Z,4.4
2023-02-15T03:58:52.197Z,4.4
2023-02-15T03:59:55.581Z,4.4
2023-02-15T04:00:58.541Z,4.4
2023-02-15T04:02:01.951Z,4.3
2023-02-15T04:03:05.596Z,4.4
2023-02-15T04:04:08.707Z,4.3
2023-02-15T04:05:11.874Z,4.3
2023-02-15T04:06:14.013Z,4.3
2023-02-15T04:07:17.117Z,4.3
2023-02-15T04:08:20.178Z,4.3
2023-02-15T04:09:24.246Z,4.3
2023-02-15T04:10:27.342Z,4.3
2023-02-15T04:11:30.330Z,4.3
2023-02-15T04:12:33.134Z,4.2
2023-02-15T04:13:36.175Z,4.3
2023-02-15T04:14:39.331Z,4.3
2023-02-15T04:15:42.733Z,4.2
2023-02-15T04:16:46.060Z,4.2
2023-02-15T04:17:49.804Z,4.3
2023-02-15T04:18:52.852Z,4.2
2023-02-15T04:19:56.300Z,4.2
2023-02-15T04:20:59.425Z,4.2
2023-02-15T04:22:02.260Z,4.3
2023-02-15T04:23:05.074Z,4.2
2023-02-15T04:24:07.524Z,4.3
2023-02-15T04:25:11.618Z,4.2
2023-02-15T04:26:14.853Z,4.3
2023-02-15T04:27:18.893Z,4.3
2023-02-15T04:28:21.994Z,4.3
2023-02-15T04:29:24.823Z,4.2
2023-02-15T04:30:28.500Z,4.3
2023-02-15T04:31:32.281Z,4.3
2023-02-15T04:32:36.683Z,4.2
2023-02-15T04:33:40.083Z,4.2
2023-02-15T04:34:42.897Z,4.2
2023-02-15T04:35:45.957Z,4.2
2023-02-15T04:36:48.383Z,4.2
2023-02-15T04:37:51.160Z,4.1
2023-02-15T04:38:53.683Z,4.1
2023-02-15T04:39:57.148Z,4.1
2023-02-15T04:41:01.312Z,4.1
2023-02-15T04:42:04.306Z,4.1
2023-02-15T04:43:07.382Z,4.1
2023-02-15T04:44:10.819Z,4.1
2023-02-15T04:45:13.676Z,4.1
2023-02-15T04:46:17.137Z,4.1
2023-02-15T04:47:20.317Z,4.1
2023-02-15T04:48:23.375Z,4
2023-02-15T04:49:26.525Z,4
2023-02-15T04:50:30.034Z,4
2023-02-15T04:51:33.015Z,4
2023-02-15T04:52:35.425Z,4
2023-02-15T04:53:38.497Z,4.1
2023-02-15T04:54:41.492Z,4
2023-02-15T04:55:45.331Z,4
2023-02-15T04:56:49.450Z,4.1
2023-02-15T04:57:52.588Z,4.1
2023-02-15T04:58:55.970Z,4.1
2023-02-15T04:59:58.778Z,4
2023-02-15T05:01:02.410Z,4.1
2023-02-15T05:02:06.294Z,4.1
2023-02-15T05:03:09.354Z,4.1
2023-02-15T05:04:12.404Z,4.1
2023-02-15T05:05:15.441Z,4
2023-02-15T05:06:18.326Z,4.1
2023-02-15T05:07:21.126Z,4.1
2023-02-15T05:08:24.126Z,4.1
2023-02-15T05:09:26.925Z,4
2023-02-15T05:10:30.285Z,4
2023-02-15T05:11:33.965Z,4
2023-02-15T05:12:37.852Z,4
2023-02-15T05:13:40.656Z,4
2023-02-15T05:14:43.836Z,4
2023-02-15T05:15:47.488Z,4
2023-02-15T05:16:50.712Z,4
2023-02-15T05:17:53.922Z,4
2023-02-15T05:18:56.724Z,4
2023-02-15T05:19:59.856Z,4
2023-02-15T05:21:03.216Z,4
2023-02-15T05:22:06.007Z,4
2023-02-15T05:23:09.022Z,4
2023-02-15T05:24:12.170Z,3.9
2023-02-15T05:25:15.323Z,3.9
2023-02-15T05:26:19.467Z,3.9
2023-02-15T05:27:22.856Z,3.9
2023-02-15T05:28:26.675Z,3.9
2023-02-15T05:29:29.257Z,3.9
2023-02-15T05:30:32.730Z,3.9
2023-02-15T05:31:37.741Z,3.9
2023-02-15T05:32:42.316Z,3.9
2023-02-15T05:33:46.867Z,3.9
2023-02-15T05:34:49.900Z,3.9
2023-02-15T05:35:52.892Z,3.9
2023-02-15T05:36:55.081Z,3.9
2023-02-15T05:37:58.290Z,3.9
2023-02-15T05:39:01.399Z,3.9
2023-02-15T05:40:04.688Z,3.9
2023-02-15T05:41:07.678Z,3.9
2023-02-15T05:42:10.949Z,3.9
2023-02-15T05:43:14.689Z,3.9
2023-02-15T05:44:18.795Z,3.9
2023-02-15T05:45:21.801Z,3.9
2023-02-15T05:46:25.399Z,3.9
2023-02-15T05:47:28.370Z,3.9
2023-02-15T05:48:32.080Z,3.9
2023-02-15T05:49:35.844Z,3.9
2023-02-15T05:50:39.480Z,3.9
2023-02-15T05:51:42.228Z,3.9
2023-02-15T05:52:44.651Z,3.9
2023-02-15T05:53:46.648Z,3.9
2023-02-15T05:54:49.706Z,3.9
2023-02-15T05:55:53.077Z,3.9
2023-02-15T05:56:56.186Z,3.9
2023-02-15T05:57:59.631Z,3.9
2023-02-15T05:59:02.761Z,3.9
2023-02-15T06:00:07.069Z,3.8
2023-02-15T06:01:10.066Z,3.9
2023-02-15T06:02:13.340Z,3.9
2023-02-15T06:03:16.114Z,3.9
2023-02-15T06:04:19.757Z,3.9
2023-02-15T06:05:23.176Z,3.9
2023-02-15T06:06:26.563Z,3.9
2023-02-15T06:07:29.351Z,3.9
2023-02-15T06:08:32.389Z,3.8
2023-02-15T06:09:35.155Z,3.9
2023-02-15T06:10:38.528Z,3.8
2023-02-15T06:11:41.917Z,3.8
2023-02-15T06:12:44.621Z,3.8
2023-02-15T06:13:48.005Z,3.8
2023-02-15T06:14:50.776Z,3.8
2023-02-15T06:15:55.128Z,3.8
2023-02-15T06:16:59.020Z,3.8
2023-02-15T06:18:01.721Z,3.8
2023-02-15T06:19:04.979Z,3.8
2023-02-15T06:20:07.814Z,3.8
2023-02-15T06:21:10.840Z,3.8
2023-02-15T06:22:14.187Z,3.8
2023-02-15T06:23:17.029Z,3.8
2023-02-15T06:24:20.397Z,3.8
2023-02-15T06:25:23.208Z,3.8
2023-02-15T06:26:26.575Z,3.8
2023-02-15T06:27:29.462Z,3.8
2023-02-15T06:28:32.527Z,3.8
2023-02-15T06:29:35.584Z,3.8
2023-02-15T06:30:39.407Z,3.9
2023-02-15T06:31:44.431Z,3.8
2023-02-15T06:32:47.755Z,3.8
2023-02-15T06:33:51.144Z,3.8
2023-02-15T06:34:54.570Z,3.9
2023-02-15T06:35:57.920Z,3.9
2023-02-15T06:37:01.037Z,3.9
2023-02-15T06:38:04.177Z,3.9
2023-02-15T06:39:07.006Z,3.8
2023-02-15T06:40:10.528Z,3.8
2023-02-15T06:41:14.151Z,3.8
2023-02-15T06:42:17.638Z,3.8
2023-02-15T06:43:20.408Z,3.8
2023-02-15T06:44:23.467Z,3.8
2023-02-15T06:45:26.576Z,3.8
2023-02-15T06:46:29.862Z,3.8
2023-02-15T06:47:34.272Z,3.8
2023-02-15T06:48:36.581Z,3.8
2023-02-15T06:49:39.503Z,3.8
2023-02-15T06:50:43.002Z,3.8
2023-02-15T06:51:46.981Z,3.8
2023-02-15T06:52:49.438Z,3.8
2023-02-15T06:53:52.790Z,3.8
2023-02-15T06:54:55.957Z,3.8
2023-02-15T06:55:59.806Z,3.8
2023-02-15T06:57:03.454Z,3.8
2023-02-15T06:58:07.213Z,3.8
2023-02-15T06:59:10.868Z,3.8
2023-02-15T07:00:13.961Z,3.8
2023-02-15T07:01:17.503Z,3.8
2023-02-15T07:02:21.010Z,3.8
2023-02-15T07:03:25.101Z,3.8
2023-02-15T07:04:28.925Z,3.8
2023-02-15T07:05:33.036Z,3.8
2023-02-15T07:06:36.742Z,3.8
2023-02-15T07:07:40.115Z,3.8
2023-02-15T07:08:43.148Z,3.8
2023-02-15T07:09:46.662Z,3.8
2023-02-15T07:10:49.949Z,3.8
2023-02-15T07:11:53.316Z,3.8
2023-02-15T07:12:56.042Z,3.8
2023-02-15T07:13:59.410Z,3.8
2023-02-15T07:15:02.461Z,3.8
2023-02-15T07:16:06.291Z,3.8
2023-02-15T07:17:36.644Z,3.8
2023-02-15T07:18:41.019Z,3.8
2023-02-15T07:19:43.986Z,3.8
2023-02-15T07:20:47.969Z,3.8
2023-02-15T07:21:51.039Z,3.8
2023-02-15T07:22:54.413Z,3.8
2023-02-15T07:23:57.602Z,3.8
2023-02-15T07:25:00.413Z,3.8
2023-02-15T07:26:04.480Z,3.9
2023-02-15T07:27:07.404Z,3.9
2023-02-15T07:28:10.534Z,3.9
2023-02-15T07:29:13.507Z,3.9
2023-02-15T07:30:17.814Z,3.9
2023-02-15T07:31:21.248Z,4
2023-02-15T07:32:24.979Z,4
2023-02-15T07:33:28.635Z,4
2023-02-15T07:34:32.999Z,4
2023-02-15T07:35:35.791Z,4
2023-02-15T07:36:39.234Z,4.1
2023-02-15T07:37:42.563Z,4.1
2023-02-15T07:38:45.363Z,4.1
2023-02-15T07:39:48.729Z,4.1
2023-02-15T07:40:52.560Z,4.1
2023-02-15T07:41:55.547Z,4.1
2023-02-15T07:42:58.931Z,4.1
2023-02-15T07:44:02.120Z,4.2
2023-02-15T07:45:05.271Z,4.2
2023-02-15T07:46:08.813Z,4.2
2023-02-15T07:47:12.298Z,4.2
2023-02-15T07:48:15.383Z,4.2
2023-02-15T07:49:18.945Z,4.2
2023-02-15T07:50:23.065Z,4.2
2023-02-15T07:51:26.857Z,4.2
2023-02-15T07:52:30.197Z,4.2
2023-02-15T07:53:33.589Z,4.2
2023-02-15T07:54:37.073Z,4.3
2023-02-15T07:55:40.196Z,4.3
2023-02-15T07:56:43.313Z,4.3
2023-02-15T07:57:46.630Z,4.3
2023-02-15T07:58:50.008Z,4.3
2023-02-15T07:59:53.077Z,4.3
2023-02-15T08:00:56.144Z,4.3
2023-02-15T08:01:59.949Z,4.3
2023-02-15T08:03:03.801Z,4.3
2023-02-15T08:04:07.752Z,4.3
2023-02-15T08:05:10.923Z,4.3
2023-02-15T08:06:15.168Z,4.3
2023-02-15T08:07:18.229Z,4.3
2023-02-15T08:08:21.595Z,4.3
2023-02-15T08:09:24.930Z,4.3
2023-02-15T08:10:28.199Z,4.3
2023-02-15T08:11:31.383Z,4.4
2023-02-15T08:12:35.110Z,4.4
2023-02-15T08:13:38.498Z,4.3
2023-02-15T08:14:41.563Z,4.4
2023-02-15T08:15:44.989Z,4.4
2023-02-15T08:16:48.612Z,4.4
2023-02-15T08:17:52.720Z,4.4
2023-02-15T08:18:55.517Z,4.4
2023-02-15T08:19:57.678Z,4.4
2023-02-15T08:21:01.117Z,4.4
2023-02-15T08:22:05.269Z,4.5
2023-02-15T08:23:08.174Z,4.4
2023-02-15T08:24:10.951Z,4.5
2023-02-15T08:25:13.805Z,4.5
2023-02-15T08:26:17.163Z,4.5
2023-02-15T08:27:20.219Z,4.5
2023-02-15T08:28:23.264Z,4.5
2023-02-15T08:29:26.636Z,4.5
2023-02-15T08:30:30.427Z,4.5
2023-02-15T08:31:37.525Z,4.5
2023-02-15T08:32:41.017Z,4.5
2023-02-15T08:33:44.466Z,4.5
2023-02-15T08:34:47.533Z,4.5
2023-02-15T08:35:50.964Z,4.6
2023-02-15T08:36:54.092Z,4.6
2023-02-15T08:37:58.318Z,4.6
2023-02-15T08:39:01.118Z,4.5
2023-02-15T08:40:03.907Z,4.5
2023-02-15T08:41:06.973Z,4.5
2023-02-15T08:42:10.037Z,4.5
2023-02-15T08:43:13.107Z,4.5
2023-02-15T08:44:16.821Z,4.5
2023-02-15T08:45:19.953Z,4.6
2023-02-15T08:46:23.534Z,4.6
2023-02-15T08:47:26.900Z,4.6
2023-02-15T08:48:30.308Z,4.6
2023-02-15T08:49:33.142Z,4.6
2023-02-15T08:50:36.817Z,4.6
2023-02-15T08:51:40.521Z,4.6
2023-02-15T08:52:43.282Z,4.6
2023-02-15T08:53:47.474Z,4.6
2023-02-15T08:54:49.716Z,4.6
2023-02-15T08:55:53.021Z,4.6
2023-02-15T08:56:56.370Z,4.5
2023-02-15T08:57:59.405Z,4.5
2023-02-15T08:59:02.929Z,4.5
2023-02-15T09:00:06.435Z,4.5
2023-02-15T09:01:10.109Z,4.5
2023-02-15T09:02:13.519Z,4.5
2023-02-15T09:03:16.768Z,4.5
2023-02-15T09:04:19.520Z,4.6
2023-02-15T09:05:22.645Z,4.6
2023-02-15T09:06:26.000Z,4.6
2023-02-15T09:07:29.025Z,4.6
2023-02-15T09:08:32.373Z,4.6
2023-02-15T09:09:36.306Z,4.6
2023-02-15T09:10:39.376Z,4.6
2023-02-15T09:11:42.467Z,4.6
2023-02-15T09:12:45.195Z,4.6
2023-02-15T09:13:48.605Z,4.6
2023-02-15T09:14:52.977Z,4.6
2023-02-15T09:15:56.686Z,4.6
2023-02-15T09:16:59.991Z,4.6
2023-02-15T09:18:03.373Z,4.6
2023-02-15T09:19:06.977Z,4.6
2023-02-15T09:20:10.087Z,4.6
2023-02-15T09:21:12.945Z,4.6
2023-02-15T09:22:16.397Z,4.6
2023-02-15T09:23:28.053Z,4.6
2023-02-15T09:24:30.928Z,4.6
2023-02-15T09:25:35.119Z,4.6
2023-02-15T09:26:38.246Z,4.6
2023-02-15T09:27:41.591Z,4.6
2023-02-15T09:28:44.993Z,4.6
2023-02-15T09:29:48.344Z,4.7
2023-02-15T09:30:51.554Z,4.7
2023-02-15T09:31:55.206Z,4.7
2023-02-15T09:32:59.019Z,4.7
2023-02-15T09:34:02.108Z,4.8
2023-02-15T09:35:05.263Z,4.8
2023-02-15T09:36:09.051Z,4.8
2023-02-15T09:37:11.826Z,4.8
2023-02-15T09:38:14.690Z,4.8
2023-02-15T09:39:18.045Z,4.9
2023-02-15T09:40:22.124Z,4.9
2023-02-15T09:41:26.237Z,4.9
2023-02-15T09:42:28.942Z,4.9
2023-02-15T09:43:31.444Z,5
2023-02-15T09:44:35.181Z,5
2023-02-15T09:45:38.330Z,5.1
2023-02-15T09:46:41.253Z,5.1
2023-02-15T09:47:44.637Z,5.2
2023-02-15T09:48:47.789Z,5.2
2023-02-15T09:49:51.116Z,5.2
2023-02-15T09:50:53.575Z,5.2
2023-02-15T09:51:56.624Z,5.2
2023-02-15T09:52:59.356Z,5.2
2023-02-15T09:54:02.506Z,5.3
2023-02-15T09:55:05.967Z,5.3
2023-02-15T09:56:09.419Z,5.3
2023-02-15T09:57:13.743Z,5.3
2023-02-15T09:58:16.527Z,5.4
2023-02-15T09:59:19.921Z,5.3
2023-02-15T10:00:24.208Z,5.3
2023-02-15T10:01:27.268Z,5.4
2023-02-15T10:02:31.150Z,5.4
2023-02-15T10:03:34.280Z,5.4
2023-02-15T10:04:37.605Z,5.5
2023-02-15T10:05:41.475Z,5.5
2023-02-15T10:06:44.602Z,5.6
2023-02-15T10:07:48.226Z,5.6
2023-02-15T10:08:51.948Z,5.7
2023-02-15T10:09:54.705Z,5.7
2023-02-15T10:10:58.431Z,5.7
2023-02-15T10:12:01.649Z,5.7
2023-02-15T10:13:05.996Z,5.8
2023-02-15T10:14:09.059Z,5.8
2023-02-15T10:15:12.226Z,5.8
2023-02-15T10:16:15.248Z,5.9
2023-02-15T10:17:18.429Z,5.9
2023-02-15T10:18:21.695Z,5.9
2023-02-15T10:19:28.616Z,6
2023-02-15T10:20:32.362Z,6
2023-02-15T10:21:36.012Z,6.1
2023-02-15T10:22:39.434Z,6.1
2023-02-15T10:23:42.673Z,6.2
2023-02-15T10:24:49.478Z,6.2
2023-02-15T10:25:53.195Z,6.2
2023-02-15T10:26:55.927Z,6.3
2023-02-15T10:27:59.480Z,6.3
2023-02-15T10:29:03.804Z,6.3
2023-02-15T10:30:08.099Z,6.4
2023-02-15T10:31:11.891Z,6.4
2023-02-15T10:32:16.358Z,6.4
2023-02-15T10:33:20.243Z,6.5
2023-02-15T10:34:23.310Z,6.4
2023-02-15T10:35:26.304Z,6.5
2023-02-15T10:36:29.769Z,6.5
2023-02-15T10:37:33.127Z,6.5
2023-02-15T10:38:36.513Z,6.5
2023-02-15T10:39:39.920Z,6.5
2023-02-15T10:40:43.359Z,6.5
2023-02-15T10:41:47.932Z,6.5
2023-02-15T10:42:51.015Z,6.5
2023-02-15T10:43:54.148Z,6.5
2023-02-15T10:44:58.456Z,6.6
2023-02-15T10:46:01.303Z,6.6
2023-02-15T10:47:05.196Z,6.6
2023-02-15T10:48:08.560Z,6.6
2023-02-15T10:49:12.314Z,6.6
2023-02-15T10:50:16.042Z,6.6
2023-02-15T10:51:19.207Z,6.6
2023-02-15T10:52:25.239Z,6.6
2023-02-15T10:53:28.358Z,6.7
2023-02-15T10:54:31.378Z,6.7
2023-02-15T10:55:34.539Z,6.7
2023-02-15T10:56:38.264Z,6.8
2023-02-15T10:57:41.638Z,6.8
2023-02-15T10:58:44.095Z,6.8
2023-02-15T10:59:47.285Z,6.8
2023-02-15T11:00:51.350Z,6.8
2023-02-15T11:01:54.770Z,6.8
2023-02-15T11:02:58.152Z,6.8
2023-02-15T11:04:01.485Z,6.8
2023-02-15T11:05:05.431Z,6.9
2023-02-15T11:06:08.691Z,6.9
2023-02-15T11:07:11.799Z,6.9
2023-02-15T11:08:15.178Z,6.9
2023-02-15T11:09:18.630Z,6.9
2023-02-15T11:10:22.287Z,7
2023-02-15T11:11:25.445Z,7
2023-02-15T11:12:28.869Z,7
2023-02-15T11:13:32.361Z,7.1
2023-02-15T11:14:35.182Z,7.1
2023-02-15T11:15:39.060Z,7.1
2023-02-15T11:16:43.405Z,7.1
2023-02-15T11:17:47.055Z,7.2
2023-02-15T11:18:51.050Z,7.2
2023-02-15T11:19:54.855Z,7.2
2023-02-15T11:20:58.120Z,7.2
2023-02-15T11:22:01.584Z,7.2
2023-02-15T11:23:04.953Z,7.3
2023-02-15T11:24:08.683Z,7.3
2023-02-15T11:25:12.867Z,7.3
2023-02-15T11:26:16.284Z,7.3
2023-02-15T11:27:19.879Z,7.3
2023-02-15T11:28:23.845Z,7.4
2023-02-15T11:29:26.841Z,7.4
2023-02-15T11:30:30.064Z,7.4
2023-02-15T11:31:34.463Z,7.5
2023-02-15T11:32:38.976Z,7.5
2023-02-15T11:33:42.695Z,7.6
2023-02-15T11:34:46.062Z,7.6
2023-02-15T11:35:49.413Z,7.6
2023-02-15T11:36:52.415Z,7.6
2023-02-15T11:37:55.932Z,7.6
2023-02-15T11:38:59.260Z,7.7
2023-02-15T11:40:02.746Z,7.6
2023-02-15T11:41:06.240Z,7.7
2023-02-15T11:42:09.425Z,7.7
2023-02-15T11:43:12.415Z,7.7
2023-02-15T11:44:15.399Z,7.7
2023-02-15T11:45:18.790Z,7.7
2023-02-15T11:46:22.813Z,7.7
2023-02-15T11:47:26.488Z,7.7
2023-02-15T11:48:30.823Z,7.7
2023-02-15T11:49:33.727Z,7.7
2023-02-15T11:50:37.742Z,7.7
2023-02-15T11:51:41.397Z,7.7
2023-02-15T11:52:45.049Z,7.7
2023-02-15T11:53:48.185Z,7.7
2023-02-15T11:54:51.866Z,7.7
2023-02-15T11:55:54.889Z,7.7
2023-02-15T11:56:57.972Z,7.7
2023-02-15T11:58:01.453Z,7.7
2023-02-15T11:59:04.594Z,7.7
2023-02-15T12:00:08.237Z,7.7
2023-02-15T12:01:11.380Z,7.7
2023-02-15T12:02:14.455Z,7.7
2023-02-15T12:03:17.734Z,7.7
2023-02-15T12:04:22.529Z,7.7
2023-02-15T12:05:26.454Z,7.7
2023-02-15T12:06:30.291Z,7.6
2023-02-15T12:07:33.282Z,7.7
2023-02-15T12:08:36.152Z,7.7
2023-02-15T12:09:39.291Z,7.7
2023-02-15T12:10:42.777Z,7.7
2023-02-15T12:11:46.192Z,7.7
2023-02-15T12:12:48.979Z,7.6
2023-02-15T12:13:51.969Z,7.6
2023-02-15T12:14:55.445Z,7.6
2023-02-15T12:15:59.074Z,7.6
2023-02-15T12:17:02.316Z,7.6
2023-02-15T12:18:04.803Z,7.6
2023-02-15T12:19:07.845Z,7.7
2023-02-15T12:20:12.308Z,7.7
2023-02-15T12:21:15.687Z,7.7
2023-02-15T12:22:18.676Z,7.7
2023-02-15T12:23:22.186Z,7.6
2023-02-15T12:24:25.448Z,7.7
2023-02-15T12:25:28.650Z,7.7
2023-02-15T12:26:31.455Z,7.6
2023-02-15T12:27:34.843Z,7.6
2023-02-15T12:28:41.846Z,7.6
2023-02-15T12:29:44.878Z,7.7
2023-02-15T12:30:47.825Z,7.7
2023-02-15T12:31:52.184Z,7.7
2023-02-15T12:32:56.176Z,7.7
2023-02-15T12:34:00.046Z,7.7
2023-02-15T12:35:04.124Z,7.7
2023-02-15T12:36:08.299Z,7.8
2023-02-15T12:37:11.036Z,7.7
2023-02-15T12:38:14.599Z,7.8
2023-02-15T12:39:17.382Z,7.7
2023-02-15T12:40:20.842Z,7.8
2023-02-15T12:41:23.647Z,7.8
2023-02-15T12:42:27.286Z,7.8
2023-02-15T12:43:29.719Z,7.8
2023-02-15T12:44:32.793Z,7.9
2023-02-15T12:45:36.199Z,7.9
2023-02-15T12:46:40.250Z,7.9
2023-02-15T12:47:43.697Z,8
2023-02-15T12:48:47.374Z,8
2023-02-15T12:49:50.152Z,8.1
2023-02-15T12:50:56.594Z,8.1
2023-02-15T12:52:00.486Z,8.1
2023-02-15T12:53:03.557Z,8.1
2023-02-15T12:54:06.951Z,8.1
2023-02-15T12:55:10.399Z,8.1
2023-02-15T12:56:13.109Z,8.1
2023-02-15T12:57:15.977Z,8.1
2023-02-15T12:58:18.987Z,8.1
2023-02-15T12:59:24.293Z,8.1
2023-02-15T13:00:27.357Z,8.1
2023-02-15T13:01:30.951Z,8.2
2023-02-15T13:02:34.390Z,8.2
2023-02-15T13:03:38.001Z,8.2
2023-02-15T13:04:41.338Z,8.2
2023-02-15T13:05:46.222Z,8.2
2023-02-15T13:06:50.010Z,8.2
2023-02-15T13:07:54.329Z,8.3
2023-02-15T13:08:57.678Z,8.3
2023-02-15T13:10:01.869Z,8.3
2023-02-15T13:11:05.730Z,8.4
2023-02-15T13:12:08.794Z,8.4
2023-02-15T13:13:11.906Z,8.4
2023-02-15T13:14:15.758Z,8.4
2023-02-15T13:15:18.908Z,8.4
2023-02-15T13:16:22.712Z,8.5
2023-02-15T13:17:26.872Z,8.5
2023-02-15T13:18:30.301Z,8.5
2023-02-15T13:19:34.184Z,8.6
2023-02-15T13:20:37.685Z,8.6
2023-02-15T13:21:41.030Z,8.6
2023-02-15T13:22:44.427Z,8.6
2023-02-15T13:23:48.615Z,8.7
2023-02-15T13:24:52.152Z,8.7
2023-02-15T13:25:56.420Z,8.8
2023-02-15T13:27:16.709Z,8.8
2023-02-15T13:28:20.395Z,8.9
2023-02-15T13:29:24.149Z,9
2023-02-15T13:30:28.049Z,9.1
2023-02-15T13:31:31.666Z,9.2
2023-02-15T13:32:35.603Z,9.2
2023-02-15T13:33:38.833Z,9.3
2023-02-15T13:34:42.477Z,9.3
2023-02-15T13:35:45.221Z,9.4
2023-02-15T13:36:48.291Z,9.4
2023-02-15T13:37:51.117Z,9.4
2023-02-15T13:38:55.418Z,9.5
2023-02-15T13:39:59.184Z,9.5
2023-02-15T13:41:03.845Z,9.6
2023-02-15T13:42:07.226Z,9.6
2023-02-15T13:43:10.829Z,9.6
2023-02-15T13:44:14.549Z,9.6
2023-02-15T13:45:17.619Z,9.6
2023-02-15T13:46:21.520Z,9.6
2023-02-15T13:47:24.956Z,9.6
2023-02-15T13:48:51.540Z,9.6
2023-02-15T13:49:54.560Z,9.5
2023-02-15T13:50:57.897Z,9.5
2023-02-15T13:52:01.641Z,9.5
2023-02-15T13:53:05.075Z,9.5
2023-02-15T13:54:09.322Z,9.5
2023-02-15T13:55:13.012Z,9.5
2023-02-15T13:56:15.832Z,9.5
2023-02-15T13:57:19.079Z,9.5
2023-02-15T13:58:23.016Z,9.5
2023-02-15T13:59:26.696Z,9.5
2023-02-15T14:00:30.367Z,9.5
2023-02-15T14:01:34.697Z,9.5
2023-02-15T14:02:38.442Z,9.4
2023-02-15T14:03:42.292Z,9.4
2023-02-15T14:04:46.258Z,9.4
2023-02-15T14:05:49.591Z,9.3
2023-02-15T14:06:52.016Z,9.3
2023-02-15T14:07:55.292Z,9.2
2023-02-15T14:11:17.427Z,9.2
2023-02-15T14:12:21.310Z,9.1
2023-02-15T14:13:25.025Z,9.1
2023-02-15T14:14:28.654Z,9.1
2023-02-15T14:15:32.297Z,9.1
2023-02-15T14:16:36.080Z,9.2
2023-02-15T14:17:39.245Z,9.2
2023-02-15T14:18:42.611Z,9.2
2023-02-15T14:19:46.654Z,9.3
2023-02-15T14:20:50.317Z,9.3
2023-02-15T14:21:53.319Z,9.4
2023-02-15T14:22:56.366Z,9.4
2023-02-15T14:23:59.774Z,9.4
2023-02-15T14:25:03.710Z,9.5
2023-02-15T14:26:06.644Z,9.5
2023-02-15T14:27:10.283Z,9.5
2023-02-15T14:28:14.383Z,9.5
2023-02-15T14:29:17.238Z,9.6
2023-02-15T14:30:20.315Z,9.6
2023-02-15T14:31:25.184Z,9.6
2023-02-15T14:32:29.844Z,9.6
2023-02-15T14:33:37.563Z,9.6
2023-02-15T14:34:41.150Z,9.6
2023-02-15T14:35:43.922Z,9.6
2023-02-15T14:36:47.611Z,9.6
2023-02-15T14:37:51.784Z,9.6
2023-02-15T14:38:54.498Z,9.6
2023-02-15T14:39:58.295Z,9.5